Weather at Twin Rivers Regional Medical Center Heliport

Public forecast

Using degrees Fahrenheit for public forecast. Weather courtesy of forecast.io.

Closest aviation weather report (METAR) to Twin Rivers Regional Medical Center Heliport

Closest report is Kennett Memorial Airport, 0.6 nm (1.2 km) SSE. Retrieved 2021/07/24 16:15 UTC (5 minutes ago):

KTKX 241615Z AUTO 24005KT 8SM CLR 32/26 A3004 RMK AO2

Closest aviation forecast (TAF) to Twin Rivers Regional Medical Center Heliport

Closest forecast is Jonesboro Municipal Airport, 38.1 nm (70.6 km) SW. Retrieved 2021/07/24 12:36 UTC (4 hours ago):

TAF KJBR 241135Z 2412/2512 24004KT P6SM SKC TEMPO 2412/2413 4SM BR FM241800 21006KT P6SM SCT050 FM250100 20003KT P6SM FEW250